createdAt,value
2023-08-30T00:01:43.036Z,97458.44
2023-08-30T00:04:46.202Z,97453.75
2023-08-30T00:07:50.684Z,97450.66
2023-08-30T00:10:54.366Z,97461.47
2023-08-30T00:14:06.615Z,97459.03
2023-08-30T00:17:10.025Z,97461.06
2023-08-30T00:20:13.803Z,97455.63
2023-08-30T00:23:18.764Z,97455.19
2023-08-30T00:26:21.946Z,97461.19
2023-08-30T00:29:25.103Z,97460.09
2023-08-30T00:32:28.656Z,97453.72
2023-08-30T00:35:32.118Z,97454.97
2023-08-30T00:38:36.639Z,97457.34
2023-08-30T00:41:39.842Z,97456.97
2023-08-30T00:44:43.031Z,97454.41
2023-08-30T00:47:46.359Z,97456.94
2023-08-30T00:50:52.167Z,97457.03
2023-08-30T00:53:57.424Z,97457.78
2023-08-30T00:57:02.683Z,97447.78
2023-08-30T01:00:08.633Z,97447.78
2023-08-30T01:03:17.995Z,97451.97
2023-08-30T01:06:21.388Z,97448.81
2023-08-30T01:09:26.919Z,97454.50
2023-08-30T01:12:39.037Z,97452.38
2023-08-30T01:15:45.085Z,97446.72
2023-08-30T01:18:49.404Z,97441.16
2023-08-30T01:21:58.472Z,97446.91
2023-08-30T01:25:17.946Z,97452.28
2023-08-30T01:28:26.842Z,97449.69
2023-08-30T01:31:34.548Z,97451.34
2023-08-30T01:34:38.897Z,97452.53
2023-08-30T01:37:42.594Z,97453.66
2023-08-30T01:40:46.905Z,97448.16
2023-08-30T01:43:53.834Z,97451.66
2023-08-30T01:46:58.709Z,97458.91
2023-08-30T01:50:02.332Z,97458.28
2023-08-30T01:53:06.110Z,97447.88
2023-08-30T01:56:09.730Z,97455.78
2023-08-30T01:59:15.078Z,97456.66
2023-08-30T02:02:18.355Z,97454.41
2023-08-30T02:05:21.498Z,97459.53
2023-08-30T02:08:29.198Z,97455.41
2023-08-30T02:11:36.724Z,97463.59
2023-08-30T02:14:42.933Z,97455.41
2023-08-30T02:17:47.154Z,97460.91
2023-08-30T02:20:50.466Z,97459.47
2023-08-30T02:23:53.906Z,97457.69
2023-08-30T02:26:57.149Z,97447.91
2023-08-30T02:30:01.776Z,97449.91
2023-08-30T02:33:05.902Z,97444.25
2023-08-30T02:36:09.841Z,97445.59
2023-08-30T02:39:13.919Z,97438.44
2023-08-30T02:42:17.167Z,97439.16
2023-08-30T02:45:21.677Z,97438.72
2023-08-30T02:48:24.849Z,97439.13
2023-08-30T02:51:28.050Z,97443.56
2023-08-30T02:54:31.341Z,97444.72
2023-08-30T02:57:34.482Z,97442.34
2023-08-30T03:00:39.346Z,97441.56
2023-08-30T03:03:44.515Z,97444.88
2023-08-30T03:06:47.763Z,97437.03
2023-08-30T03:09:54.354Z,97433.97
2023-08-30T03:12:57.624Z,97444.97
2023-08-30T03:16:02.253Z,97438.31
2023-08-30T03:19:06.191Z,97444.19
2023-08-30T03:22:09.403Z,97439.81
2023-08-30T03:25:13.534Z,97437.84
2023-08-30T03:28:16.855Z,97449.56
2023-08-30T03:34:31.387Z,97451.00
2023-08-30T03:37:34.530Z,97447.19
2023-08-30T03:40:40.626Z,97443.09
2023-08-30T03:43:44.787Z,97444.22
2023-08-30T03:46:48.109Z,97436.22
2023-08-30T03:49:52.837Z,97441.72
2023-08-30T03:52:55.961Z,97446.00
2023-08-30T03:56:00.361Z,97454.81
2023-08-30T03:59:03.678Z,97449.00
2023-08-30T04:02:08.060Z,97448.50
2023-08-30T04:05:12.862Z,97449.66
2023-08-30T04:08:16.190Z,97448.81
2023-08-30T04:11:19.383Z,97445.38
2023-08-30T04:14:24.526Z,97444.59
2023-08-30T04:17:28.246Z,97448.50
2023-08-30T04:20:33.441Z,97460.22
2023-08-30T04:23:36.650Z,97461.16
2023-08-30T04:26:39.996Z,97461.47
2023-08-30T04:29:46.072Z,97461.38
2023-08-30T04:32:49.980Z,97459.16
2023-08-30T04:35:55.814Z,97459.91
2023-08-30T04:39:02.863Z,97455.72
2023-08-30T04:42:07.732Z,97455.72
2023-08-30T04:45:11.972Z,97460.47
2023-08-30T04:48:15.305Z,97469.44
2023-08-30T04:51:21.453Z,97466.34
2023-08-30T04:54:25.104Z,97458.09
2023-08-30T04:57:28.410Z,97456.06
2023-08-30T05:00:32.470Z,97454.41
2023-08-30T05:03:36.000Z,97461.25
2023-08-30T05:06:40.693Z,97458.91
2023-08-30T05:09:43.930Z,97460.69
2023-08-30T05:12:52.947Z,97464.56
2023-08-30T05:15:56.417Z,97464.34
2023-08-30T05:18:59.707Z,97456.16
2023-08-30T05:22:04.751Z,97454.28
2023-08-30T05:25:08.443Z,97455.09
2023-08-30T05:28:11.756Z,97448.63
2023-08-30T05:31:15.123Z,97441.38
2023-08-30T05:35:06.133Z,97445.41
2023-08-30T05:38:33.818Z,97435.50
2023-08-30T05:41:59.367Z,97448.22
2023-08-30T05:45:02.531Z,97444.03
2023-08-30T05:48:08.536Z,97444.59
2023-08-30T05:51:11.921Z,97442.09
2023-08-30T05:54:16.672Z,97450.94
2023-08-30T05:57:19.945Z,97447.00
2023-08-30T06:00:24.749Z,97456.47
2023-08-30T06:03:28.032Z,97454.47
2023-08-30T06:06:31.306Z,97447.59
2023-08-30T06:09:35.856Z,97458.22
2023-08-30T06:12:38.995Z,97452.81
2023-08-30T06:15:42.202Z,97447.38
2023-08-30T06:18:45.476Z,97448.22
2023-08-30T06:21:48.688Z,97448.72
2023-08-30T06:24:53.611Z,97441.97
2023-08-30T06:27:59.634Z,97453.66
2023-08-30T06:31:03.527Z,97446.78
2023-08-30T06:34:06.896Z,97459.00
2023-08-30T06:37:10.145Z,97456.50
2023-08-30T06:40:15.525Z,97459.06
2023-08-30T06:43:19.476Z,97438.66
2023-08-30T06:46:22.919Z,97419.19
2023-08-30T06:49:26.577Z,97416.59
2023-08-30T06:52:29.756Z,97422.66
2023-08-30T06:55:34.591Z,97418.81
2023-08-30T06:58:37.817Z,97418.06
2023-08-30T07:01:41.026Z,97410.47
2023-08-30T07:04:44.273Z,97401.31
2023-08-30T07:07:47.455Z,97399.53
2023-08-30T07:10:53.381Z,97403.22
2023-08-30T07:13:56.632Z,97406.91
2023-08-30T07:17:00.500Z,97399.41
2023-08-30T07:20:05.987Z,97396.09
2023-08-30T07:23:11.120Z,97393.44
2023-08-30T07:26:15.774Z,97391.84
2023-08-30T07:29:19.031Z,97396.59
2023-08-30T07:32:22.361Z,97396.41
2023-08-30T07:35:25.647Z,97396.19
2023-08-30T07:38:29.042Z,97398.19
2023-08-30T07:41:36.574Z,97395.38
2023-08-30T07:44:39.647Z,97402.34
2023-08-30T07:47:42.869Z,97403.06
2023-08-30T07:50:46.538Z,97397.75
2023-08-30T07:53:50.040Z,97405.03
2023-08-30T07:56:57.724Z,97404.84
2023-08-30T08:00:01.096Z,97400.41
2023-08-30T08:03:05.358Z,97396.41
2023-08-30T08:06:08.641Z,97392.19
2023-08-30T08:09:11.930Z,97391.81
2023-08-30T08:12:16.472Z,97391.75
2023-08-30T08:15:19.743Z,97391.84
2023-08-30T08:18:23.057Z,97382.53
2023-08-30T08:21:26.322Z,97383.44
2023-08-30T08:24:29.483Z,97391.81
2023-08-30T08:27:34.005Z,97387.00
2023-08-30T08:30:38.341Z,97389.31
2023-08-30T08:33:42.154Z,97384.00
2023-08-30T08:36:45.354Z,97381.06
2023-08-30T08:39:50.322Z,97382.72
2023-08-30T08:42:56.458Z,97386.84
2023-08-30T08:46:02.425Z,97381.56
2023-08-30T08:49:11.555Z,97374.13
2023-08-30T08:52:29.544Z,97373.19
2023-08-30T08:55:35.726Z,97352.34
2023-08-30T08:58:41.036Z,97364.59
2023-08-30T09:01:44.702Z,97366.44
2023-08-30T09:04:48.768Z,97367.72
2023-08-30T09:07:54.632Z,97372.47
2023-08-30T09:10:58.313Z,97375.66
2023-08-30T09:14:03.018Z,97375.16
2023-08-30T09:17:06.668Z,97379.72
2023-08-30T09:20:11.329Z,97378.94
2023-08-30T09:23:22.157Z,97383.22
2023-08-30T09:26:25.813Z,97377.25
2023-08-30T09:29:30.399Z,97379.75
2023-08-30T09:34:31.332Z,97382.56
2023-08-30T09:37:34.640Z,97379.59
2023-08-30T09:40:37.868Z,97363.19
2023-08-30T09:43:44.481Z,97364.41
2023-08-30T09:46:52.174Z,97370.28
2023-08-30T09:49:58.268Z,97358.84
2023-08-30T09:53:03.802Z,97369.00
2023-08-30T09:56:09.567Z,97370.78
2023-08-30T09:59:13.449Z,97361.19
2023-08-30T10:02:18.337Z,97355.94
2023-08-30T10:05:22.946Z,97359.41
2023-08-30T10:08:30.562Z,97356.13
2023-08-30T10:11:35.841Z,97355.56
2023-08-30T10:14:39.675Z,97349.84
2023-08-30T10:17:47.390Z,97344.81
2023-08-30T10:20:56.634Z,97348.84
2023-08-30T10:24:02.512Z,97340.63
2023-08-30T10:27:10.403Z,97336.78
2023-08-30T10:30:15.274Z,97334.53
2023-08-30T10:33:19.703Z,97328.41
2023-08-30T10:36:25.366Z,97337.06
2023-08-30T10:39:36.345Z,97338.16
2023-08-30T10:42:39.607Z,97342.31
2023-08-30T10:45:44.471Z,97328.75
2023-08-30T10:48:49.841Z,97328.66
2023-08-30T10:52:03.642Z,97328.16
2023-08-30T10:55:07.952Z,97319.19
2023-08-30T10:58:16.812Z,97327.50
2023-08-30T11:01:22.972Z,97329.06
2023-08-30T11:04:29.088Z,97324.88
2023-08-30T11:07:33.795Z,97326.94
2023-08-30T11:10:37.193Z,97321.25
2023-08-30T11:13:40.326Z,97317.06
2023-08-30T11:16:43.544Z,97312.94
2023-08-30T11:19:47.126Z,97317.56
2023-08-30T11:22:52.553Z,97313.66
2023-08-30T11:25:55.701Z,97312.19
2023-08-30T11:28:58.961Z,97311.94
2023-08-30T11:32:02.520Z,97308.00
2023-08-30T11:35:07.159Z,97302.13
2023-08-30T11:38:12.116Z,97287.81
2023-08-30T11:41:15.607Z,97300.09
2023-08-30T11:44:20.918Z,97291.94
2023-08-30T11:47:25.859Z,97281.81
2023-08-30T11:50:33.006Z,97291.31
2023-08-30T11:53:44.797Z,97288.50
2023-08-30T11:56:51.087Z,97288.75
2023-08-30T11:59:54.346Z,97284.78
2023-08-30T12:02:57.809Z,97298.72
2023-08-30T12:06:01.137Z,97281.47
2023-08-30T12:09:10.824Z,97297.41
2023-08-30T12:12:14.599Z,97294.06
2023-08-30T12:15:18.033Z,97285.28
2023-08-30T12:18:24.213Z,97277.31
2023-08-30T12:21:28.363Z,97284.06
2023-08-30T12:24:42.618Z,97285.69
2023-08-30T12:27:45.990Z,97280.59
2023-08-30T12:30:49.249Z,97278.69
2023-08-30T12:33:52.528Z,97279.31
2023-08-30T12:36:57.785Z,97282.72
2023-08-30T12:40:02.500Z,97271.63
2023-08-30T12:43:06.130Z,97279.53
2023-08-30T12:46:11.991Z,97272.00
2023-08-30T12:49:15.511Z,97272.16
2023-08-30T12:52:18.735Z,97271.22
2023-08-30T12:55:23.505Z,97277.44
2023-08-30T12:58:26.745Z,97277.00
2023-08-30T13:01:30.038Z,97272.88
2023-08-30T13:04:33.310Z,97270.22
2023-08-30T13:07:36.475Z,97268.91
2023-08-30T13:10:41.063Z,97266.50
2023-08-30T13:13:44.986Z,97261.41
2023-08-30T13:16:48.224Z,97259.38
2023-08-30T13:19:52.056Z,97258.19
2023-08-30T13:22:55.201Z,97248.69
2023-08-30T13:25:59.770Z,97252.22
2023-08-30T13:29:03.336Z,97244.75
2023-08-30T13:32:07.291Z,97252.63
2023-08-30T13:35:10.790Z,97254.25
2023-08-30T13:38:14.116Z,97236.81
2023-08-30T13:41:18.689Z,97249.81
2023-08-30T13:44:21.915Z,97238.00
2023-08-30T13:47:25.235Z,97236.44
2023-08-30T13:50:31.550Z,97235.19
2023-08-30T13:53:34.734Z,97230.53
2023-08-30T13:56:39.890Z,97233.50
2023-08-30T13:59:43.135Z,97232.66
2023-08-30T14:02:46.371Z,97235.56
2023-08-30T14:05:49.656Z,97243.13
2023-08-30T14:08:52.911Z,97236.44
2023-08-30T14:11:57.503Z,97239.47
2023-08-30T14:15:00.693Z,97239.81
2023-08-30T14:18:04.119Z,97232.56
2023-08-30T14:21:08.049Z,97235.41
2023-08-30T14:24:11.272Z,97240.69
2023-08-30T14:27:16.032Z,97232.81
2023-08-30T14:30:19.540Z,97236.03
2023-08-30T14:33:22.896Z,97242.78
2023-08-30T14:36:26.154Z,97242.75
2023-08-30T14:39:31.489Z,97243.38
2023-08-30T14:42:36.091Z,97243.56
2023-08-30T14:45:39.369Z,97244.56
2023-08-30T14:48:42.605Z,97245.25
2023-08-30T14:51:46.199Z,97239.81
2023-08-30T14:54:50.368Z,97237.72
2023-08-30T14:57:54.870Z,97239.13
2023-08-30T15:00:58.425Z,97233.81
2023-08-30T15:04:02.504Z,97236.91
2023-08-30T15:07:05.802Z,97230.38
2023-08-30T15:10:09.770Z,97225.81
2023-08-30T15:13:14.479Z,97226.47
2023-08-30T15:16:17.660Z,97227.16
2023-08-30T15:19:20.879Z,97230.78
2023-08-30T15:22:24.172Z,97230.69
2023-08-30T15:25:27.449Z,97226.59
2023-08-30T15:28:31.959Z,97227.72
2023-08-30T15:34:31.193Z,97215.00
2023-08-30T15:37:34.366Z,97223.63
2023-08-30T15:40:39.052Z,97225.59
2023-08-30T15:43:42.721Z,97221.56
2023-08-30T15:46:45.996Z,97223.19
2023-08-30T15:49:50.738Z,97223.53
2023-08-30T15:52:54.821Z,97217.31
2023-08-30T15:55:59.273Z,97212.16
2023-08-30T15:59:02.573Z,97213.25
2023-08-30T16:02:06.298Z,97214.34
2023-08-30T16:05:11.991Z,97214.22
2023-08-30T16:08:15.610Z,97213.75
2023-08-30T16:11:19.123Z,97222.63
2023-08-30T16:14:22.449Z,97216.88
2023-08-30T16:17:25.873Z,97208.53
2023-08-30T16:20:32.634Z,97208.28
2023-08-30T16:23:36.105Z,97210.94
2023-08-30T16:26:39.373Z,97204.31
2023-08-30T16:29:42.798Z,97209.38
2023-08-30T16:32:46.069Z,97210.72
2023-08-30T16:35:51.340Z,97209.94
2023-08-30T16:38:54.625Z,97202.03
2023-08-30T16:41:58.132Z,97196.59
2023-08-30T16:45:01.395Z,97200.72
2023-08-30T16:48:07.870Z,97200.56
2023-08-30T16:51:12.559Z,97201.06
2023-08-30T16:54:15.854Z,97199.06
2023-08-30T16:57:19.143Z,97191.63
2023-08-30T17:00:22.432Z,97188.34
2023-08-30T17:03:25.948Z,97200.72
2023-08-30T17:06:30.471Z,97201.56
2023-08-30T17:09:36.301Z,97218.00
2023-08-30T17:12:39.501Z,97210.44
2023-08-30T17:15:43.658Z,97215.56
2023-08-30T17:18:47.085Z,97215.88
2023-08-30T17:21:52.937Z,97207.56
2023-08-30T17:24:56.312Z,97219.72
2023-08-30T17:27:59.704Z,97215.34
2023-08-30T17:31:03.008Z,97209.72
2023-08-30T17:34:06.420Z,97211.06
2023-08-30T17:37:11.306Z,97211.16
2023-08-30T17:40:14.849Z,97209.75
2023-08-30T17:43:18.327Z,97206.91
2023-08-30T17:46:21.505Z,97219.72
2023-08-30T17:49:24.950Z,97220.91
2023-08-30T17:52:29.494Z,97218.16
2023-08-30T17:55:32.758Z,97223.94
2023-08-30T17:58:36.883Z,97228.97
2023-08-30T18:01:40.059Z,97230.63
2023-08-30T18:04:43.567Z,97222.72
2023-08-30T18:07:48.213Z,97235.75
2023-08-30T18:10:51.482Z,97232.50
2023-08-30T18:13:54.952Z,97238.19
2023-08-30T18:16:58.560Z,97245.09
2023-08-30T18:20:01.913Z,97252.16
2023-08-30T18:23:06.832Z,97249.19
2023-08-30T18:26:10.234Z,97249.19
2023-08-30T18:29:13.791Z,97248.59
2023-08-30T18:32:17.196Z,97254.44
2023-08-30T18:35:20.485Z,97253.34
2023-08-30T18:38:25.133Z,97254.84
2023-08-30T18:41:28.493Z,97254.44
2023-08-30T18:44:31.795Z,97243.78
2023-08-30T18:47:35.430Z,97248.97
2023-08-30T18:50:42.239Z,97245.81
2023-08-30T18:53:47.818Z,97258.72
2023-08-30T18:56:52.128Z,97257.69
2023-08-30T18:59:55.388Z,97257.72
2023-08-30T19:02:58.737Z,97263.84
2023-08-30T19:06:02.034Z,97266.84
2023-08-30T19:09:09.623Z,97276.53
2023-08-30T19:12:12.923Z,97269.31
2023-08-30T19:15:16.161Z,97270.81
2023-08-30T19:18:19.383Z,97268.91
2023-08-30T19:21:23.187Z,97273.69
2023-08-30T19:24:27.937Z,97272.88
2023-08-30T19:27:31.130Z,97270.66
2023-08-30T19:30:34.388Z,97271.06
2023-08-30T19:33:37.681Z,97274.28
2023-08-30T19:36:40.893Z,97273.38
2023-08-30T19:39:45.400Z,97268.00
2023-08-30T19:42:50.402Z,97278.03
2023-08-30T19:46:04.205Z,97267.84
2023-08-30T19:49:07.355Z,97285.91
2023-08-30T19:52:10.515Z,97282.22
2023-08-30T19:55:15.139Z,97278.56
2023-08-30T19:58:18.622Z,97280.13
2023-08-30T20:01:22.187Z,97276.16
2023-08-30T20:04:25.821Z,97281.25
2023-08-30T20:07:29.301Z,97284.69
2023-08-30T20:10:34.505Z,97285.78
2023-08-30T20:13:37.774Z,97284.03
2023-08-30T20:16:41.329Z,97283.78
2023-08-30T20:19:45.438Z,97287.09
2023-08-30T20:22:48.776Z,97286.66
2023-08-30T20:25:54.318Z,97284.72
2023-08-30T20:28:57.511Z,97288.59
2023-08-30T20:32:01.089Z,97292.59
2023-08-30T20:35:06.362Z,97291.63
2023-08-30T20:38:10.427Z,97296.31
2023-08-30T20:41:14.995Z,97300.72
2023-08-30T20:44:18.215Z,97301.72
2023-08-30T20:47:21.465Z,97307.63
2023-08-30T20:50:24.701Z,97296.78
2023-08-30T20:53:34.082Z,97295.19
2023-08-30T20:56:39.101Z,97298.53
2023-08-30T20:59:44.031Z,97299.75
2023-08-30T21:02:47.303Z,97299.63
2023-08-30T21:05:51.553Z,97293.53
2023-08-30T21:08:55.370Z,97299.34
2023-08-30T21:12:00.290Z,97305.81
2023-08-30T21:15:04.053Z,97302.13
2023-08-30T21:18:07.834Z,97293.00
2023-08-30T21:21:11.709Z,97296.63
2023-08-30T21:24:14.934Z,97301.00
2023-08-30T21:27:19.797Z,97298.06
2023-08-30T21:34:31.015Z,97301.47
2023-08-30T21:37:34.327Z,97312.59
2023-08-30T21:40:39.328Z,97318.66
2023-08-30T21:43:42.519Z,97329.38
2023-08-30T21:46:46.322Z,97360.34
2023-08-30T21:49:51.008Z,97379.16
2023-08-30T21:52:54.167Z,97383.50
2023-08-30T21:55:57.817Z,97390.22
2023-08-30T21:59:01.097Z,97394.44
2023-08-30T22:02:04.389Z,97398.22
2023-08-30T22:05:11.691Z,97407.44
2023-08-30T22:08:14.843Z,97407.06
2023-08-30T22:11:18.020Z,97431.63
2023-08-30T22:14:21.152Z,97425.78
2023-08-30T22:17:24.325Z,97404.63
2023-08-30T22:20:28.898Z,97397.41
2023-08-30T22:23:32.193Z,97402.53
2023-08-30T22:26:35.351Z,97403.78
2023-08-30T22:29:38.646Z,97403.09
2023-08-30T22:32:41.883Z,97394.00
2023-08-30T22:35:46.726Z,97392.63
2023-08-30T22:38:51.507Z,97381.44
2023-08-30T22:41:54.743Z,97377.69
2023-08-30T22:44:57.972Z,97375.78
2023-08-30T22:48:01.442Z,97375.84
2023-08-30T22:51:06.271Z,97372.94
2023-08-30T22:54:09.418Z,97383.88
2023-08-30T22:57:12.603Z,97379.88
2023-08-30T23:00:17.742Z,97368.41
2023-08-30T23:03:21.038Z,97380.78
2023-08-30T23:06:25.885Z,97375.19
2023-08-30T23:09:29.281Z,97380.31
2023-08-30T23:12:32.567Z,97383.44
2023-08-30T23:15:35.912Z,97384.66
2023-08-30T23:18:39.079Z,97381.38
2023-08-30T23:21:43.721Z,97387.34
2023-08-30T23:24:47.540Z,97396.63
2023-08-30T23:27:51.212Z,97402.28
2023-08-30T23:30:54.465Z,97409.31
2023-08-30T23:33:57.619Z,97407.47
2023-08-30T23:37:02.399Z,97405.03
2023-08-30T23:40:10.970Z,97402.84
2023-08-30T23:43:14.164Z,97394.56
2023-08-30T23:46:17.742Z,97399.94
2023-08-30T23:49:21.112Z,97405.31
2023-08-30T23:52:26.048Z,97412.31
2023-08-30T23:55:29.206Z,97412.00
2023-08-30T23:58:32.430Z,97416.53
